createdAt,value
2023-04-04T00:00:22.967Z,46.74
2023-04-04T00:02:50.077Z,46.66
2023-04-04T00:05:17.568Z,46.48
2023-04-04T00:07:47.955Z,46.68
2023-04-04T00:10:15.506Z,47.01
2023-04-04T00:12:43.202Z,46.80
2023-04-04T00:15:10.658Z,47.01
2023-04-04T00:17:37.725Z,47.14
2023-04-04T00:20:05.043Z,47.24
2023-04-04T00:22:32.101Z,47.07
2023-04-04T00:24:59.176Z,47.35
2023-04-04T00:27:26.177Z,47.50
2023-04-04T00:29:53.241Z,47.13
2023-04-04T00:32:20.241Z,47.07
2023-04-04T00:34:47.267Z,47.47
2023-04-04T00:37:14.031Z,47.35
2023-04-04T00:39:40.999Z,47.46
2023-04-04T00:42:08.123Z,47.71
2023-04-04T00:44:36.268Z,47.47
2023-04-04T00:47:04.886Z,47.73
2023-04-04T00:49:31.719Z,47.85
2023-04-04T00:51:59.223Z,47.45
2023-04-04T00:54:26.190Z,48.32
2023-04-04T00:56:55.319Z,48.18
2023-04-04T00:59:28.027Z,47.86
2023-04-04T01:01:55.013Z,48.24
2023-04-04T01:04:22.073Z,48.03
2023-04-04T01:06:49.795Z,48.13
2023-04-04T01:09:16.781Z,48.52
2023-04-04T01:11:44.460Z,48.10
2023-04-04T01:14:11.682Z,48.15
2023-04-04T01:16:39.430Z,48.25
2023-04-04T01:19:11.688Z,48.39
2023-04-04T01:21:39.387Z,48.31
2023-04-04T01:24:08.607Z,48.63
2023-04-04T01:26:35.581Z,48.52
2023-04-04T01:29:02.404Z,48.71
2023-04-04T01:31:38.012Z,48.39
2023-04-04T01:34:21.975Z,48.33
2023-04-04T01:37:07.047Z,49.14
2023-04-04T01:39:48.026Z,48.64
2023-04-04T01:42:15.251Z,48.60
2023-04-04T01:44:42.454Z,48.90
2023-04-04T01:47:09.331Z,48.89
2023-04-04T01:49:36.160Z,48.84
2023-04-04T01:52:04.211Z,49.22
2023-04-04T01:54:32.275Z,49.47
2023-04-04T01:56:59.048Z,49.28
2023-04-04T01:59:26.075Z,49.55
2023-04-04T02:01:53.301Z,49.24
2023-04-04T02:04:20.126Z,49.20
2023-04-04T02:06:47.219Z,49.68
2023-04-04T02:09:14.306Z,49.61
2023-04-04T02:11:41.380Z,49.58
2023-04-04T02:14:08.628Z,49.42
2023-04-04T02:16:35.382Z,49.57
2023-04-04T02:19:02.164Z,49.77
2023-04-04T02:21:28.913Z,49.73
2023-04-04T02:23:55.696Z,49.51
2023-04-04T02:26:22.492Z,50.00
2023-04-04T02:28:49.248Z,49.77
2023-04-04T02:31:16.684Z,49.75
2023-04-04T02:33:43.450Z,49.98
2023-04-04T02:36:10.450Z,50.16
2023-04-04T02:38:37.225Z,50.09
2023-04-04T02:41:03.998Z,49.86
2023-04-04T02:43:30.769Z,50.27
2023-04-04T02:45:57.779Z,49.79
2023-04-04T02:48:25.786Z,50.05
2023-04-04T02:50:52.640Z,50.54
2023-04-04T02:53:19.447Z,50.05
2023-04-04T02:55:46.256Z,50.07
2023-04-04T02:58:13.008Z,50.14
2023-04-04T03:00:40.176Z,49.85
2023-04-04T03:03:07.414Z,49.96
2023-04-04T03:05:34.347Z,50.55
2023-04-04T03:08:01.379Z,50.23
2023-04-04T03:10:32.268Z,50.28
2023-04-04T03:12:59.685Z,50.72
2023-04-04T03:15:27.541Z,50.67
2023-04-04T03:17:54.595Z,50.81
2023-04-04T03:20:21.926Z,50.36
2023-04-04T03:22:49.163Z,50.35
2023-04-04T03:25:16.141Z,50.51
2023-04-04T03:27:42.907Z,50.60
2023-04-04T03:30:10.411Z,50.71
2023-04-04T03:32:39.282Z,50.86
2023-04-04T03:35:07.609Z,50.43
2023-04-04T03:37:34.530Z,51.11
2023-04-04T03:40:01.524Z,50.96
2023-04-04T03:42:28.312Z,50.39
2023-04-04T03:44:55.263Z,51.25
2023-04-04T03:47:22.077Z,50.46
2023-04-04T03:49:51.399Z,50.89
2023-04-04T03:52:18.668Z,51.01
2023-04-04T03:54:46.110Z,51.00
2023-04-04T03:57:12.860Z,51.10
2023-04-04T03:59:39.710Z,51.13
2023-04-04T04:02:06.808Z,51.11
2023-04-04T04:04:33.620Z,51.25
2023-04-04T04:07:02.198Z,51.27
2023-04-04T04:09:28.944Z,51.37
2023-04-04T04:11:56.450Z,51.67
2023-04-04T04:14:23.193Z,51.07
2023-04-04T04:16:50.098Z,51.05
2023-04-04T04:19:17.045Z,51.86
2023-04-04T04:21:43.995Z,51.90
2023-04-04T04:24:10.988Z,51.02
2023-04-04T04:26:37.734Z,51.43
2023-04-04T04:29:04.679Z,51.82
2023-04-04T04:31:31.572Z,51.74
2023-04-04T04:33:58.438Z,51.47
2023-04-04T04:36:25.488Z,51.37
2023-04-04T04:38:52.347Z,51.98
2023-04-04T04:41:19.087Z,51.44
2023-04-04T04:43:45.828Z,51.67
2023-04-04T04:46:13.123Z,51.67
2023-04-04T04:48:39.956Z,51.50
2023-04-04T04:51:06.802Z,51.76
2023-04-04T04:53:33.611Z,51.80
2023-04-04T04:56:00.414Z,51.97
2023-04-04T04:58:28.611Z,51.84
2023-04-04T05:00:59.185Z,52.15
2023-04-04T05:03:26.242Z,51.75
2023-04-04T05:05:53.376Z,51.77
2023-04-04T05:08:20.181Z,51.63
2023-04-04T05:10:46.937Z,51.77
2023-04-04T05:13:14.120Z,52.16
2023-04-04T05:15:41.082Z,51.77
2023-04-04T05:18:07.860Z,52.13
2023-04-04T05:20:35.700Z,52.38
2023-04-04T05:23:02.836Z,52.25
2023-04-04T05:25:29.605Z,52.17
2023-04-04T05:27:57.589Z,52.58
2023-04-04T05:30:24.695Z,51.89
2023-04-04T05:32:52.492Z,52.68
2023-04-04T05:35:19.355Z,51.96
2023-04-04T05:37:46.203Z,52.50
2023-04-04T05:40:13.192Z,52.86
2023-04-04T05:42:39.927Z,52.67
2023-04-04T05:45:07.578Z,52.08
2023-04-04T05:47:34.487Z,52.73
2023-04-04T05:50:01.618Z,52.35
2023-04-04T05:52:28.361Z,52.23
2023-04-04T05:54:55.140Z,52.56
2023-04-04T05:57:23.012Z,52.98
2023-04-04T05:59:51.570Z,52.99
2023-04-04T06:02:18.511Z,52.92
2023-04-04T06:04:45.534Z,53.01
2023-04-04T06:07:12.411Z,53.00
2023-04-04T06:09:39.945Z,52.62
2023-04-04T06:12:09.008Z,52.52
2023-04-04T06:14:36.447Z,52.45
2023-04-04T06:17:04.427Z,52.22
2023-04-04T06:19:31.169Z,51.85
2023-04-04T06:21:57.949Z,51.20
2023-04-04T06:24:24.682Z,50.88
2023-04-04T06:26:52.672Z,50.34
2023-04-04T06:29:19.536Z,49.65
2023-04-04T06:31:46.305Z,49.03
2023-04-04T06:34:13.062Z,48.62
2023-04-04T06:36:39.848Z,48.13
2023-04-04T06:39:06.587Z,47.34
2023-04-04T06:41:33.360Z,47.33
2023-04-04T06:44:00.537Z,46.79
2023-04-04T06:46:27.609Z,46.08
2023-04-04T06:48:54.902Z,46.25
2023-04-04T06:51:21.846Z,45.66
2023-04-04T06:53:49.336Z,45.40
2023-04-04T06:56:16.571Z,44.69
2023-04-04T06:58:43.411Z,45.10
2023-04-04T07:01:10.166Z,45.23
2023-04-04T07:03:37.365Z,45.18
2023-04-04T07:06:04.803Z,44.70
2023-04-04T07:08:36.296Z,44.43
2023-04-04T07:11:04.667Z,43.76
2023-04-04T07:13:31.757Z,43.54
2023-04-04T07:15:58.520Z,43.22
2023-04-04T07:18:25.284Z,43.28
2023-04-04T07:20:52.062Z,42.96
2023-04-04T07:23:18.814Z,43.03
2023-04-04T07:25:46.990Z,43.04
2023-04-04T07:28:13.820Z,42.88
2023-04-04T07:30:41.439Z,42.68
2023-04-04T07:33:08.815Z,42.26
2023-04-04T07:35:35.870Z,42.22
2023-04-04T07:38:03.170Z,42.31
2023-04-04T07:40:30.177Z,41.76
2023-04-04T07:42:56.977Z,41.33
2023-04-04T07:45:23.919Z,40.66
2023-04-04T07:47:51.526Z,40.75
2023-04-04T07:50:19.492Z,40.50
2023-04-04T07:52:52.608Z,39.97
2023-04-04T07:55:20.131Z,39.68
2023-04-04T07:57:47.231Z,39.44
2023-04-04T08:00:14.892Z,39.27
2023-04-04T08:02:44.223Z,39.20
2023-04-04T08:05:11.291Z,38.97
2023-04-04T08:07:38.130Z,39.11
2023-04-04T08:10:06.174Z,39.04
2023-04-04T08:12:33.088Z,38.76
2023-04-04T08:14:59.820Z,39.18
2023-04-04T08:17:26.682Z,39.86
2023-04-04T08:19:53.656Z,40.00
2023-04-04T08:22:20.394Z,40.45
2023-04-04T08:24:47.519Z,40.86
2023-04-04T08:27:15.866Z,40.85
2023-04-04T08:29:42.643Z,40.72
2023-04-04T08:32:09.627Z,39.63
2023-04-04T08:34:36.485Z,40.47
2023-04-04T08:37:03.529Z,40.80
2023-04-04T08:39:30.421Z,40.91
2023-04-04T08:42:05.519Z,41.48
2023-04-04T08:44:34.681Z,41.50
2023-04-04T08:47:09.543Z,41.87
2023-04-04T08:49:41.360Z,41.83
2023-04-04T08:52:11.821Z,41.41
2023-04-04T08:54:40.720Z,41.05
2023-04-04T08:57:08.259Z,41.70
2023-04-04T08:59:35.426Z,41.54
2023-04-04T09:02:11.804Z,41.80
2023-04-04T09:04:40.850Z,41.93
2023-04-04T09:07:08.185Z,41.78
2023-04-04T09:09:37.806Z,41.89
2023-04-04T09:12:05.981Z,41.66
2023-04-04T09:14:37.256Z,41.29
2023-04-04T09:17:04.011Z,42.13
2023-04-04T09:19:31.146Z,41.69
2023-04-04T09:21:58.361Z,41.57
2023-04-04T09:24:37.146Z,40.91
2023-04-04T09:27:04.058Z,40.96
2023-04-04T09:29:30.801Z,41.39
2023-04-04T09:31:57.610Z,40.88
2023-04-04T09:34:24.433Z,41.42
2023-04-04T09:36:51.247Z,41.39
2023-04-04T09:39:20.840Z,41.21
2023-04-04T09:41:48.262Z,41.39
2023-04-04T09:44:16.431Z,40.59
2023-04-04T09:46:43.379Z,40.71
2023-04-04T09:49:21.580Z,40.90
2023-04-04T09:51:51.314Z,40.74
2023-04-04T09:54:29.767Z,40.63
2023-04-04T09:56:57.615Z,40.81
2023-04-04T09:59:24.719Z,41.44
2023-04-04T10:01:54.986Z,41.40
2023-04-04T10:04:21.919Z,41.64
2023-04-04T10:06:48.684Z,41.33
2023-04-04T10:09:16.195Z,40.70
2023-04-04T10:11:43.059Z,40.42
2023-04-04T10:14:09.936Z,40.24
2023-04-04T10:16:37.951Z,40.78
2023-04-04T10:19:07.696Z,40.12
2023-04-04T10:21:34.956Z,40.72
2023-04-04T10:24:08.838Z,40.22
2023-04-04T10:26:37.287Z,41.06
2023-04-04T10:29:06.135Z,40.50
2023-04-04T10:31:39.178Z,40.00
2023-04-04T10:34:38.582Z,40.15
2023-04-04T10:37:13.628Z,39.92
2023-04-04T10:39:53.257Z,39.29
2023-04-04T10:42:20.140Z,39.44
2023-04-04T10:44:47.645Z,39.65
2023-04-04T10:47:23.764Z,39.32
2023-04-04T10:49:53.015Z,39.67
2023-04-04T10:52:24.993Z,39.70
2023-04-04T10:55:00.295Z,39.53
2023-04-04T10:57:30.918Z,39.50
2023-04-04T11:00:09.420Z,39.49
2023-04-04T11:02:46.200Z,39.54
2023-04-04T11:05:26.172Z,39.48
2023-04-04T11:08:08.794Z,39.86
2023-04-04T11:10:43.162Z,40.00
2023-04-04T11:13:22.444Z,40.05
2023-04-04T11:16:03.975Z,39.53
2023-04-04T11:18:43.293Z,39.62
2023-04-04T11:21:27.300Z,39.71
2023-04-04T11:24:13.212Z,39.69
2023-04-04T11:26:42.762Z,39.49
2023-04-04T11:29:14.167Z,39.10
2023-04-04T11:31:45.237Z,39.23
2023-04-04T11:34:19.952Z,39.06
2023-04-04T11:36:51.451Z,40.72
2023-04-04T11:39:30.248Z,39.52
2023-04-04T11:42:03.514Z,39.02
2023-04-04T11:44:33.181Z,38.80
2023-04-04T11:47:11.170Z,38.26
2023-04-04T11:49:43.039Z,38.21
2023-04-04T11:52:16.330Z,38.27
2023-04-04T11:54:46.855Z,38.47
2023-04-04T11:57:19.246Z,38.20
2023-04-04T11:59:50.484Z,37.73
2023-04-04T12:02:32.048Z,37.75
2023-04-04T12:04:59.505Z,38.15
2023-04-04T12:07:26.694Z,37.75
2023-04-04T12:09:54.580Z,38.23
2023-04-04T12:12:22.557Z,37.79
2023-04-04T12:14:49.403Z,37.39
2023-04-04T12:17:16.793Z,37.25
2023-04-04T12:19:44.307Z,37.05
2023-04-04T12:22:11.614Z,37.58
2023-04-04T12:24:38.557Z,37.72
2023-04-04T12:27:06.224Z,37.28
2023-04-04T12:29:36.160Z,37.21
2023-04-04T12:32:04.644Z,36.95
2023-04-04T12:34:33.886Z,36.56
2023-04-04T12:37:02.643Z,36.48
2023-04-04T12:39:30.514Z,36.04
2023-04-04T12:42:03.524Z,36.13
2023-04-04T12:44:33.447Z,36.74
2023-04-04T12:47:05.743Z,37.17
2023-04-04T12:49:44.148Z,36.63
2023-04-04T12:52:22.888Z,36.99
2023-04-04T12:55:06.681Z,37.50
2023-04-04T12:57:35.024Z,37.05
2023-04-04T13:00:04.849Z,36.55
2023-04-04T13:02:31.997Z,36.38
2023-04-04T13:05:00.149Z,36.48
2023-04-04T13:07:30.134Z,36.88
2023-04-04T13:10:03.767Z,36.20
2023-04-04T13:13:00.501Z,36.66
2023-04-04T13:15:52.724Z,36.70
2023-04-04T13:18:24.929Z,36.44
2023-04-04T13:20:53.650Z,35.70
2023-04-04T13:23:22.141Z,35.68
2023-04-04T13:25:48.990Z,35.38
2023-04-04T13:28:16.070Z,35.17
2023-04-04T13:30:49.417Z,35.09
2023-04-04T13:33:18.101Z,35.49
2023-04-04T13:35:46.217Z,35.51
2023-04-04T13:38:12.986Z,35.62
2023-04-04T13:40:40.027Z,35.90
2023-04-04T13:43:06.884Z,36.00
2023-04-04T13:45:35.032Z,35.75
2023-04-04T13:48:02.589Z,35.84
2023-04-04T13:50:31.087Z,36.14
2023-04-04T13:52:57.954Z,35.98
2023-04-04T13:55:24.852Z,35.76
2023-04-04T13:57:52.196Z,35.64
2023-04-04T14:00:19.128Z,35.17
2023-04-04T14:02:46.540Z,34.77
2023-04-04T14:05:13.333Z,34.99
2023-04-04T14:07:40.952Z,34.62
2023-04-04T14:10:10.117Z,34.65
2023-04-04T14:12:37.181Z,34.73
2023-04-04T14:15:05.297Z,34.55
2023-04-04T14:17:32.120Z,34.76
2023-04-04T14:19:58.919Z,34.74
2023-04-04T14:22:25.918Z,35.24
2023-04-04T14:24:52.837Z,35.26
2023-04-04T14:27:19.581Z,35.54
2023-04-04T14:29:46.398Z,35.60
2023-04-04T14:32:13.227Z,35.37
2023-04-04T14:34:39.972Z,35.21
2023-04-04T14:37:07.152Z,35.43
2023-04-04T14:39:33.910Z,35.23
2023-04-04T14:42:00.822Z,35.50
2023-04-04T14:44:28.194Z,35.24
2023-04-04T14:46:55.037Z,35.09
2023-04-04T14:49:21.838Z,34.80
2023-04-04T14:51:48.657Z,34.64
2023-04-04T14:54:15.451Z,34.72
2023-04-04T14:56:42.978Z,34.90
2023-04-04T14:59:09.879Z,34.75
2023-04-04T15:01:37.120Z,34.62
2023-04-04T15:04:03.978Z,34.31
2023-04-04T15:06:36.299Z,33.86
2023-04-04T15:09:06.104Z,34.62
2023-04-04T15:11:32.964Z,34.41
2023-04-04T15:13:59.731Z,34.37
2023-04-04T15:16:29.725Z,34.24
2023-04-04T15:18:56.516Z,34.30
2023-04-04T15:21:23.280Z,34.22
2023-04-04T15:23:50.081Z,34.41
2023-04-04T15:26:16.836Z,34.13
2023-04-04T15:28:43.630Z,34.06
2023-04-04T15:31:13.868Z,34.05
2023-04-04T15:33:41.187Z,34.35
2023-04-04T15:36:08.018Z,34.39
2023-04-04T15:38:34.782Z,34.37
2023-04-04T15:41:01.576Z,34.82
2023-04-04T15:43:28.394Z,34.51
2023-04-04T15:45:55.183Z,34.37
2023-04-04T15:48:22.319Z,34.24
2023-04-04T15:50:49.095Z,34.63
2023-04-04T15:53:15.875Z,34.85
2023-04-04T15:55:43.800Z,34.65
2023-04-04T15:58:10.768Z,34.97
2023-04-04T16:00:37.647Z,34.94
2023-04-04T16:03:04.729Z,34.94
2023-04-04T16:05:31.570Z,35.12
2023-04-04T16:07:58.445Z,35.17
2023-04-04T16:10:25.186Z,35.02
2023-04-04T16:12:51.934Z,34.99
2023-04-04T16:15:19.234Z,35.16
2023-04-04T16:17:46.957Z,34.96
2023-04-04T16:20:13.876Z,34.79
2023-04-04T16:22:40.729Z,34.90
2023-04-04T16:25:08.857Z,34.65
2023-04-04T16:27:36.716Z,34.57
2023-04-04T16:30:04.037Z,34.33
2023-04-04T16:32:31.687Z,34.78
2023-04-04T16:34:58.616Z,34.87
2023-04-04T16:37:25.579Z,34.70
2023-04-04T16:39:52.361Z,35.02
2023-04-04T16:42:19.347Z,34.92
2023-04-04T16:44:47.277Z,34.92
2023-04-04T16:47:14.098Z,34.91
2023-04-04T16:49:41.513Z,34.97
2023-04-04T16:52:10.574Z,34.90
2023-04-04T16:54:37.980Z,35.13
2023-04-04T16:57:04.748Z,34.83
2023-04-04T16:59:31.499Z,35.13
2023-04-04T17:01:58.290Z,35.28
2023-04-04T17:04:25.201Z,35.04
2023-04-04T17:06:51.968Z,35.06
2023-04-04T17:09:18.752Z,35.23
2023-04-04T17:11:46.825Z,35.19
2023-04-04T17:14:14.108Z,35.50
2023-04-04T17:16:41.117Z,35.39
2023-04-04T17:19:07.957Z,35.37
2023-04-04T17:21:34.956Z,35.27
2023-04-04T17:24:01.768Z,35.77
2023-04-04T17:26:28.539Z,35.77
2023-04-04T17:28:55.443Z,35.93
2023-04-04T17:31:22.232Z,36.24
2023-04-04T17:33:49.237Z,35.98
2023-04-04T17:36:16.076Z,35.76
2023-04-04T17:38:42.983Z,35.84
2023-04-04T17:41:09.717Z,35.66
2023-04-04T17:43:36.452Z,35.98
2023-04-04T17:46:06.350Z,35.73
2023-04-04T17:48:36.632Z,35.77
2023-04-04T17:51:06.928Z,35.73
2023-04-04T17:53:35.017Z,36.09
2023-04-04T17:56:01.872Z,36.08
2023-04-04T17:58:28.632Z,35.91
2023-04-04T18:00:57.384Z,35.87
2023-04-04T18:03:24.317Z,35.90
2023-04-04T18:05:52.630Z,35.98
2023-04-04T18:08:19.419Z,36.00
2023-04-04T18:10:46.289Z,35.80
2023-04-04T18:13:13.120Z,36.19
2023-04-04T18:15:40.151Z,36.16
2023-04-04T18:18:07.968Z,36.47
2023-04-04T18:20:36.679Z,36.04
2023-04-04T18:23:04.278Z,36.70
2023-04-04T18:25:32.544Z,36.36
2023-04-04T18:28:00.130Z,36.71
2023-04-04T18:30:27.853Z,36.74
2023-04-04T18:32:56.880Z,36.67
2023-04-04T18:35:24.047Z,36.90
2023-04-04T18:37:50.854Z,37.07
2023-04-04T18:40:17.736Z,37.35
2023-04-04T18:42:45.012Z,37.21
2023-04-04T18:45:12.214Z,37.07
2023-04-04T18:47:42.608Z,37.50
2023-04-04T18:50:11.625Z,37.46
2023-04-04T18:52:38.470Z,37.64
2023-04-04T18:55:05.717Z,37.56
2023-04-04T18:57:34.284Z,37.83
2023-04-04T19:00:01.391Z,37.92
2023-04-04T19:02:28.217Z,37.93
2023-04-04T19:04:55.385Z,38.38
2023-04-04T19:07:26.494Z,38.29
2023-04-04T19:09:53.763Z,38.20
2023-04-04T19:12:20.752Z,38.42
2023-04-04T19:14:47.544Z,38.51
2023-04-04T19:17:15.578Z,38.43
2023-04-04T19:19:43.261Z,38.37
2023-04-04T19:22:10.518Z,38.50
2023-04-04T19:24:40.325Z,38.65
2023-04-04T19:27:07.662Z,38.65
2023-04-04T19:29:35.923Z,38.44
2023-04-04T19:32:12.174Z,38.72
2023-04-04T19:34:38.960Z,38.79
2023-04-04T19:37:07.032Z,38.64
2023-04-04T19:39:36.619Z,38.65
2023-04-04T19:42:05.589Z,38.47
2023-04-04T19:44:32.482Z,38.77
2023-04-04T19:47:00.944Z,38.58
2023-04-04T19:49:33.320Z,38.58
2023-04-04T19:52:04.318Z,39.02
2023-04-04T19:54:42.407Z,38.74
2023-04-04T19:57:19.587Z,39.30
2023-04-04T20:00:03.677Z,38.94
2023-04-04T20:02:30.448Z,39.49
2023-04-04T20:04:57.355Z,39.15
2023-04-04T20:07:25.011Z,39.21
2023-04-04T20:09:52.615Z,39.12
2023-04-04T20:12:24.142Z,39.51
2023-04-04T20:14:51.559Z,39.43
2023-04-04T20:17:18.743Z,39.46
2023-04-04T20:19:45.576Z,39.50
2023-04-04T20:22:13.213Z,39.29
2023-04-04T20:24:42.262Z,39.55
2023-04-04T20:27:10.372Z,39.82
2023-04-04T20:29:37.550Z,40.18
2023-04-04T20:32:08.535Z,39.77
2023-04-04T20:34:50.080Z,40.22
2023-04-04T20:37:26.189Z,40.31
2023-04-04T20:40:12.161Z,40.09
2023-04-04T20:42:40.665Z,40.42
2023-04-04T20:45:10.959Z,40.23
2023-04-04T20:47:46.200Z,40.78
2023-04-04T20:50:41.951Z,40.57
2023-04-04T20:53:09.551Z,41.01
2023-04-04T20:55:36.314Z,40.71
2023-04-04T20:58:09.381Z,40.83
2023-04-04T21:00:41.271Z,41.08
2023-04-04T21:03:32.079Z,40.94
2023-04-04T21:06:12.833Z,41.39
2023-04-04T21:08:57.766Z,41.50
2023-04-04T21:11:29.003Z,41.42
2023-04-04T21:13:56.844Z,41.34
2023-04-04T21:16:27.398Z,41.53
2023-04-04T21:19:00.303Z,41.75
2023-04-04T21:21:28.095Z,41.44
2023-04-04T21:24:00.175Z,41.61
2023-04-04T21:26:32.777Z,41.65
2023-04-04T21:29:21.145Z,41.88
2023-04-04T21:31:50.399Z,41.87
2023-04-04T21:34:25.474Z,42.21
2023-04-04T21:37:01.420Z,42.31
2023-04-04T21:39:29.744Z,42.13
2023-04-04T21:42:06.056Z,42.47
2023-04-04T21:44:34.850Z,42.44
2023-04-04T21:47:01.626Z,42.66
2023-04-04T21:49:28.658Z,42.52
2023-04-04T21:51:55.614Z,42.70
2023-04-04T21:54:22.972Z,42.83
2023-04-04T21:56:49.712Z,42.83
2023-04-04T21:59:16.552Z,42.84
2023-04-04T22:01:43.489Z,42.96
2023-04-04T22:04:10.299Z,43.04
2023-04-04T22:06:37.113Z,43.24
2023-04-04T22:09:05.508Z,43.21
2023-04-04T22:11:34.251Z,43.32
2023-04-04T22:14:03.988Z,43.27
2023-04-04T22:16:31.970Z,43.22
2023-04-04T22:19:01.371Z,43.62
2023-04-04T22:21:28.543Z,43.52
2023-04-04T22:24:02.189Z,43.33
2023-04-04T22:26:31.978Z,43.62
2023-04-04T22:29:03.736Z,43.64
2023-04-04T22:31:34.079Z,43.85
2023-04-04T22:34:02.850Z,43.97
2023-04-04T22:36:29.658Z,44.21
2023-04-04T22:38:57.878Z,44.12
2023-04-04T22:41:30.138Z,43.93
2023-04-04T22:43:57.812Z,44.04
2023-04-04T22:46:29.984Z,44.26
2023-04-04T22:49:05.394Z,44.21
2023-04-04T22:51:34.770Z,44.25
2023-04-04T22:54:02.661Z,44.40
2023-04-04T22:56:29.484Z,44.38
2023-04-04T22:58:56.297Z,44.46
2023-04-04T23:01:23.109Z,44.62
2023-04-04T23:03:49.943Z,44.52
2023-04-04T23:06:16.719Z,44.86
2023-04-04T23:08:46.911Z,44.52
2023-04-04T23:11:13.703Z,44.60
2023-04-04T23:13:42.258Z,44.85
2023-04-04T23:16:09.081Z,44.84
2023-04-04T23:18:36.067Z,44.94
2023-04-04T23:21:03.633Z,44.85
2023-04-04T23:23:30.454Z,44.99
2023-04-04T23:25:58.249Z,45.04
2023-04-04T23:28:26.518Z,45.08
2023-04-04T23:30:54.572Z,45.54
2023-04-04T23:33:21.343Z,45.54
2023-04-04T23:35:48.156Z,45.26
2023-04-04T23:38:14.932Z,45.12
2023-04-04T23:40:41.889Z,45.24
2023-04-04T23:43:08.830Z,45.65
2023-04-04T23:45:39.567Z,45.32
2023-04-04T23:48:06.621Z,45.64
2023-04-04T23:50:33.471Z,45.92
2023-04-04T23:53:00.301Z,45.60
2023-04-04T23:55:27.279Z,45.87
2023-04-04T23:58:00.623Z,45.99
